Hooper Bay Information

FAA: HPB - ICAO: PAHP

Hooper Bay (Airport) Location

State Alaska
County Kusilvak
City Hooper Bay
Hooper Bay (Airport) is 2 miles southwest of Hooper Bay, AK.
Latitude 61-31-25.9340N
Longitude 166-08-47.8420W
Elevation 19ft

Hooper Bay METARs

METAR PAHP 251756Z AUTO 09011KT 9SM -SN OVC011 M12/M14 A3003 RMK AO2 SLP169 P0000 60000 T11221139 11122 21133 51008 FZRANO
Altimeter 30.03"
Temperature -12.2°C (10.0°F)
Wind 90° at 11KT
Clouds overcast at 1,100ft
Visibility 9.0mi
Time observed: 2022-01-25T17:56:00Z

Hooper Bay (Airport) Details

Status Operational
Activation November 1949
Ownership Public
Usage Public
Chart BETHEL
ATC on-site No
Beacon schedule sunset-sunrise
Beacon color clear green

Hooper Bay (Airport) Contacts

Owner ALASKA DOT&PF CENTRAL REGION
Owner address PO BOX 196900, ANCHORAGE, AK 99519-6900
Owner phone 907-269-0749
Manager JOHN HOFFMAN
Manager address BOX 7, GLENNALLEN, AK 99588
Manager phone 907-822-3222

Hooper Bay Radio Frequencies

Hooper Bay (Airport) Radio Frequencies

UNICOM N/A
Common traffic advisory frequency (CTAF) 123